createdAt,value
2023-04-15T00:00:29.635Z,1005
2023-04-15T00:06:35.438Z,1004.9
2023-04-15T00:12:41.190Z,1004.9
2023-04-15T00:18:46.759Z,1004.9
2023-04-15T00:24:51.727Z,1004.9
2023-04-15T00:30:57.343Z,1004.8
2023-04-15T00:37:02.868Z,1004.7
2023-04-15T00:43:08.287Z,1004.7
2023-04-15T00:49:13.460Z,1004.7
2023-04-15T00:55:19.380Z,1004.7
2023-04-15T01:01:25.080Z,1004.6
2023-04-15T01:07:30.558Z,1004.6
2023-04-15T01:13:35.707Z,1004.6
2023-04-15T01:19:41.733Z,1004.7
2023-04-15T01:25:47.098Z,1004.6
2023-04-15T01:31:53.075Z,1004.6
2023-04-15T01:37:58.393Z,1004.7
2023-04-15T01:44:04.175Z,1004.6
2023-04-15T01:50:10.384Z,1004.7
2023-04-15T01:56:18.394Z,1004.7
2023-04-15T02:02:24.209Z,1004.7
2023-04-15T02:08:29.818Z,1004.7
2023-04-15T02:14:35.923Z,1004.7
2023-04-15T02:20:41.309Z,1004.7
2023-04-15T02:26:47.081Z,1004.7
2023-04-15T02:32:53.071Z,1004.7
2023-04-15T02:38:58.926Z,1004.6
2023-04-15T02:45:05.013Z,1004.6
2023-04-15T02:51:10.844Z,1004.6
2023-04-15T02:57:16.215Z,1004.6
2023-04-15T03:03:21.997Z,1004.5
2023-04-15T03:09:27.981Z,1004.5
2023-04-15T03:15:33.166Z,1004.5
2023-04-15T03:21:38.857Z,1004.5
2023-04-15T03:27:44.943Z,1004.6
2023-04-15T03:33:50.478Z,1004.7
2023-04-15T03:39:55.797Z,1004.7
2023-04-15T03:46:03.246Z,1004.7
2023-04-15T03:52:08.331Z,1004.7
2023-04-15T03:58:13.972Z,1004.7
2023-04-15T04:04:19.726Z,1004.7
2023-04-15T04:10:25.338Z,1004.7
2023-04-15T04:16:31.012Z,1004.8
2023-04-15T04:22:36.686Z,1004.8
2023-04-15T04:28:42.479Z,1004.8
2023-04-15T04:34:48.087Z,1004.8
2023-04-15T04:40:54.207Z,1004.8
2023-04-15T04:46:59.594Z,1004.8
2023-04-15T04:53:05.171Z,1004.8
2023-04-15T04:59:11.098Z,1004.9
2023-04-15T05:05:16.869Z,1004.8
2023-04-15T05:11:22.637Z,1004.9
2023-04-15T05:17:28.643Z,1004.9
2023-04-15T05:23:34.450Z,1004.9
2023-04-15T05:29:40.050Z,1004.9
2023-04-15T05:35:45.803Z,1004.9
2023-04-15T05:41:51.387Z,1004.9
2023-04-15T05:47:56.983Z,1005
2023-04-15T05:54:03.064Z,1005
2023-04-15T06:00:08.714Z,1004.9
2023-04-15T06:06:14.130Z,1004.9
2023-04-15T06:12:19.878Z,1005
2023-04-15T06:18:25.441Z,1004.9
2023-04-15T06:24:31.206Z,1004.9
2023-04-15T06:30:36.982Z,1005
2023-04-15T06:36:42.566Z,1005
2023-04-15T06:42:48.327Z,1004.9
2023-04-15T06:48:54.309Z,1005
2023-04-15T06:55:00.039Z,1005
2023-04-15T07:01:06.040Z,1005
2023-04-15T07:07:11.035Z,1005
2023-04-15T07:13:16.207Z,1005
2023-04-15T07:19:21.967Z,1005
2023-04-15T07:25:27.541Z,1005
2023-04-15T07:31:33.367Z,1005
2023-04-15T07:37:39.086Z,1005
2023-04-15T07:43:45.439Z,1005.1
2023-04-15T07:49:51.020Z,1005.1
2023-04-15T07:55:56.383Z,1005.2
2023-04-15T08:02:02.196Z,1005.2
2023-04-15T08:08:07.418Z,1005.2
2023-04-15T08:14:13.107Z,1005
2023-04-15T08:20:18.874Z,1005
2023-04-15T08:26:24.442Z,1005
2023-04-15T08:32:30.256Z,1004.9
2023-04-15T08:38:36.214Z,1005
2023-04-15T08:44:41.772Z,1005.1
2023-04-15T08:50:47.225Z,1005.1
2023-04-15T08:56:52.578Z,1005.1
2023-04-15T09:02:57.994Z,1005.1
2023-04-15T09:09:04.683Z,1005.1
2023-04-15T09:15:10.056Z,1005.2
2023-04-15T09:21:15.640Z,1005.2
2023-04-15T09:27:20.841Z,1005.3
2023-04-15T09:33:25.795Z,1005.3
2023-04-15T09:39:30.497Z,1005.3
2023-04-15T09:45:36.074Z,1005.4
2023-04-15T09:51:43.379Z,1005.3
2023-04-15T09:58:06.102Z,1005.4
2023-04-15T10:04:12.151Z,1005.4
2023-04-15T10:10:18.049Z,1005.4
2023-04-15T10:16:23.679Z,1005.4
2023-04-15T10:22:29.788Z,1005.4
2023-04-15T10:28:35.022Z,1005.4
2023-04-15T10:34:41.015Z,1005.5
2023-04-15T10:40:46.944Z,1005.5
2023-04-15T10:46:52.557Z,1005.6
2023-04-15T10:52:58.927Z,1005.5
2023-04-15T10:59:04.501Z,1005.6
2023-04-15T11:05:10.278Z,1005.6
2023-04-15T11:11:15.630Z,1005.6
2023-04-15T11:17:21.214Z,1005.7
2023-04-15T11:23:27.152Z,1005.7
2023-04-15T11:29:32.729Z,1005.7
2023-04-15T11:35:38.478Z,1005.7
2023-04-15T11:41:44.094Z,1005.7
2023-04-15T11:47:49.645Z,1005.7
2023-04-15T11:53:55.414Z,1005.8
2023-04-15T12:00:01.205Z,1005.8
2023-04-15T12:06:06.810Z,1005.9
2023-04-15T12:12:12.153Z,1006
2023-04-15T12:18:17.910Z,1006.1
2023-04-15T12:24:23.894Z,1006.2
2023-04-15T12:30:29.460Z,1006.2
2023-04-15T12:36:35.668Z,1006.3
2023-04-15T12:42:41.436Z,1006.3
2023-04-15T12:48:47.407Z,1006.3
2023-04-15T12:54:52.835Z,1006.4
2023-04-15T13:00:58.177Z,1006.4
2023-04-15T13:07:03.562Z,1006.4
2023-04-15T13:13:09.282Z,1006.5
2023-04-15T13:19:14.884Z,1006.5
2023-04-15T13:25:20.500Z,1006.6
2023-04-15T13:31:25.845Z,1006.7
2023-04-15T13:37:30.808Z,1006.7
2023-04-15T13:43:36.967Z,1006.9
2023-04-15T13:49:42.324Z,1006.9
2023-04-15T13:55:47.738Z,1007
2023-04-15T14:01:53.487Z,1007
2023-04-15T14:07:59.473Z,1007.1
2023-04-15T14:14:05.544Z,1007.1
2023-04-15T14:20:11.074Z,1007.2
2023-04-15T14:26:18.410Z,1007.4
2023-04-15T14:32:24.202Z,1007.5
2023-04-15T14:38:29.567Z,1007.4
2023-04-15T14:44:35.126Z,1007.5
2023-04-15T14:50:40.826Z,1007.6
2023-04-15T14:56:45.877Z,1007.7
2023-04-15T15:02:51.697Z,1007.8
2023-04-15T15:08:57.478Z,1007.9
2023-04-15T15:15:12.657Z,1008
2023-04-15T15:21:32.583Z,1008.1
2023-04-15T15:27:40.154Z,1008.2
2023-04-15T15:33:46.131Z,1008.3
2023-04-15T15:39:52.130Z,1008.6
2023-04-15T15:45:57.897Z,1008.6
2023-04-15T15:52:04.132Z,1008.7
2023-04-15T15:58:09.498Z,1008.7
2023-04-15T16:04:15.726Z,1008.7
2023-04-15T16:10:21.836Z,1008.8
2023-04-15T16:16:28.012Z,1008.8
2023-04-15T16:22:33.581Z,1008.9
2023-04-15T16:28:39.549Z,1009
2023-04-15T16:34:44.741Z,1009.1
2023-04-15T16:40:50.091Z,1009.2
2023-04-15T16:46:55.061Z,1009.2
2023-04-15T16:53:00.678Z,1009.3
2023-04-15T16:59:06.252Z,1009.4
2023-04-15T17:05:11.378Z,1009.5
2023-04-15T17:11:16.515Z,1009.5
2023-04-15T17:17:22.505Z,1009.6
2023-04-15T17:23:27.948Z,1009.7
2023-04-15T17:29:33.673Z,1009.8
2023-04-15T17:35:39.027Z,1009.9
2023-04-15T17:41:44.994Z,1010
2023-04-15T17:47:50.404Z,1010
2023-04-15T17:53:55.004Z,1010.1
2023-04-15T17:59:59.747Z,1010.2
2023-04-15T18:06:05.250Z,1010.2
2023-04-15T18:12:10.822Z,1010.3
2023-04-15T18:18:16.377Z,1010.3
2023-04-15T18:24:21.568Z,1010.4
2023-04-15T18:30:26.912Z,1010.5
2023-04-15T18:36:32.288Z,1010.6
2023-04-15T18:42:37.850Z,1010.7
2023-04-15T18:48:43.831Z,1010.8
2023-04-15T18:54:49.829Z,1010.9
2023-04-15T19:00:55.438Z,1011
2023-04-15T19:07:00.975Z,1011
2023-04-15T19:13:06.348Z,1011
2023-04-15T19:19:12.162Z,1011.1
2023-04-15T19:25:17.890Z,1011.2
2023-04-15T19:31:23.754Z,1011.3
2023-04-15T19:37:29.644Z,1011.3
2023-04-15T19:43:35.224Z,1011.4
2023-04-15T19:49:40.485Z,1011.4
2023-04-15T19:55:46.158Z,1011.5
2023-04-15T20:01:51.437Z,1011.5
2023-04-15T20:07:59.344Z,1011.6
2023-04-15T20:14:05.368Z,1011.7
2023-04-15T20:20:11.328Z,1011.7
2023-04-15T20:26:16.911Z,1011.8
2023-04-15T20:32:22.884Z,1011.8
2023-04-15T20:38:28.866Z,1011.9
2023-04-15T20:44:34.443Z,1011.9
2023-04-15T20:50:40.345Z,1012
2023-04-15T20:56:45.181Z,1012
2023-04-15T21:02:50.617Z,1012
2023-04-15T21:08:56.723Z,1012
2023-04-15T21:15:02.348Z,1012.1
2023-04-15T21:21:07.486Z,1012.2
2023-04-15T21:27:12.899Z,1012.2
2023-04-15T21:33:19.432Z,1012.3
2023-04-15T21:39:25.285Z,1012.4
2023-04-15T21:45:30.987Z,1012.4
2023-04-15T21:51:36.535Z,1012.5
2023-04-15T21:57:42.186Z,1012.5
2023-04-15T22:03:47.885Z,1012.6
2023-04-15T22:09:53.518Z,1012.6
2023-04-15T22:15:59.517Z,1012.7
2023-04-15T22:22:05.073Z,1012.7
2023-04-15T22:28:10.804Z,1012.8
2023-04-15T22:34:16.992Z,1012.9
2023-04-15T22:40:22.016Z,1012.9
2023-04-15T22:46:27.387Z,1013
2023-04-15T22:52:33.145Z,1013
2023-04-15T22:58:38.524Z,1013.1
2023-04-15T23:04:43.909Z,1013
2023-04-15T23:10:49.508Z,1013.1
2023-04-15T23:16:54.831Z,1013.1
2023-04-15T23:23:00.203Z,1013.1
2023-04-15T23:29:05.612Z,1013.2
2023-04-15T23:35:10.733Z,1013.3
2023-04-15T23:41:15.908Z,1013.2
2023-04-15T23:47:21.700Z,1013.2
2023-04-15T23:53:27.259Z,1013.3
2023-04-15T23:59:32.739Z,1013.3
